createdAt,value
2022-11-07T00:01:14.733Z,77.61
2022-11-07T00:03:47.055Z,77.20
2022-11-07T00:06:19.191Z,77.30
2022-11-07T00:08:54.143Z,77.13
2022-11-07T00:11:24.781Z,76.94
2022-11-07T00:13:57.080Z,76.96
2022-11-07T00:16:29.580Z,77.00
2022-11-07T00:19:02.038Z,76.82
2022-11-07T00:21:34.353Z,77.19
2022-11-07T00:24:07.957Z,76.98
2022-11-07T00:26:40.786Z,77.27
2022-11-07T00:29:17.229Z,77.12
2022-11-07T00:31:50.395Z,77.26
2022-11-07T00:34:22.680Z,77.16
2022-11-07T00:36:54.963Z,77.19
2022-11-07T00:39:27.213Z,76.85
2022-11-07T00:41:59.532Z,76.83
2022-11-07T00:44:31.755Z,76.83
2022-11-07T00:47:03.924Z,76.85
2022-11-07T00:49:36.245Z,76.93
2022-11-07T00:52:08.643Z,76.82
2022-11-07T00:54:41.369Z,76.97
2022-11-07T00:57:13.589Z,76.92
2022-11-07T00:59:45.834Z,77.06
2022-11-07T01:02:18.321Z,77.08
2022-11-07T01:05:08.269Z,76.98
2022-11-07T01:07:41.210Z,76.96
2022-11-07T01:10:13.554Z,76.91
2022-11-07T01:12:45.655Z,76.73
2022-11-07T01:15:18.152Z,76.91
2022-11-07T01:17:50.402Z,76.85
2022-11-07T01:20:22.943Z,77.05
2022-11-07T01:22:55.163Z,77.09
2022-11-07T01:25:27.382Z,77.17
2022-11-07T01:27:59.802Z,77.27
2022-11-07T01:30:32.078Z,77.11
2022-11-07T01:33:04.661Z,77.23
2022-11-07T01:35:38.179Z,77.37
2022-11-07T01:38:10.476Z,76.87
2022-11-07T01:40:58.976Z,76.90
2022-11-07T01:43:48.143Z,77.01
2022-11-07T01:46:20.854Z,77.22
2022-11-07T01:48:58.061Z,77.50
2022-11-07T01:51:33.201Z,77.37
2022-11-07T01:54:06.498Z,77.33
2022-11-07T01:56:41.298Z,77.60
2022-11-07T01:59:16.461Z,77.83
2022-11-07T02:01:49.199Z,78.22
2022-11-07T02:04:24.666Z,77.92
2022-11-07T02:07:02.080Z,78.21
2022-11-07T02:09:34.773Z,78.01
2022-11-07T02:12:07.824Z,77.71
2022-11-07T02:14:40.071Z,77.51
2022-11-07T02:17:12.980Z,77.89
2022-11-07T02:19:48.579Z,77.91
2022-11-07T02:22:30.705Z,77.71
2022-11-07T02:25:05.998Z,78.14
2022-11-07T02:27:40.213Z,78.07
2022-11-07T02:30:15.917Z,78.09
2022-11-07T02:32:48.441Z,78.18
2022-11-07T02:35:40.532Z,78.30
2022-11-07T02:38:17.045Z,79.38
2022-11-07T02:40:52.649Z,78.35
2022-11-07T02:43:28.284Z,78.40
2022-11-07T02:46:04.072Z,78.33
2022-11-07T02:48:45.008Z,78.36
2022-11-07T02:51:17.756Z,78.31
2022-11-07T02:53:49.877Z,78.41
2022-11-07T02:56:22.985Z,78.39
2022-11-07T02:58:55.794Z,78.81
2022-11-07T03:01:28.093Z,78.81
2022-11-07T03:04:00.770Z,79.03
2022-11-07T03:06:32.963Z,78.92
2022-11-07T03:09:05.618Z,78.66
2022-11-07T03:11:37.864Z,78.68
2022-11-07T03:14:10.102Z,78.27
2022-11-07T03:16:42.330Z,78.54
2022-11-07T03:19:14.495Z,78.66
2022-11-07T03:21:46.715Z,78.85
2022-11-07T03:24:18.888Z,78.56
2022-11-07T03:26:51.153Z,78.85
2022-11-07T03:29:23.424Z,78.92
2022-11-07T03:31:55.696Z,79.11
2022-11-07T03:34:27.966Z,79.23
2022-11-07T03:37:00.287Z,79.03
2022-11-07T03:39:32.536Z,79.58
2022-11-07T03:42:04.936Z,79.72
2022-11-07T03:44:37.357Z,79.49
2022-11-07T03:47:09.730Z,79.45
2022-11-07T03:49:42.154Z,79.47
2022-11-07T03:52:14.500Z,79.88
2022-11-07T03:54:46.775Z,79.77
2022-11-07T03:57:18.918Z,80.31
2022-11-07T03:59:51.064Z,80.33
2022-11-07T04:02:24.509Z,80.35
2022-11-07T04:04:56.954Z,80.43
2022-11-07T04:07:29.123Z,80.75
2022-11-07T04:10:01.269Z,80.86
2022-11-07T04:12:51.230Z,81.46
2022-11-07T04:15:43.233Z,80.78
2022-11-07T04:18:15.473Z,80.77
2022-11-07T04:20:47.673Z,80.48
2022-11-07T04:23:19.921Z,82.45
2022-11-07T04:26:09.789Z,82.12
2022-11-07T04:28:42.049Z,82.05
2022-11-07T04:31:14.292Z,82.65
2022-11-07T04:33:46.408Z,81.86
2022-11-07T04:36:19.068Z,81.67
2022-11-07T04:38:51.334Z,81.86
2022-11-07T04:41:25.397Z,81.99
2022-11-07T04:43:57.796Z,82.54
2022-11-07T04:46:29.887Z,84.22
2022-11-07T04:49:02.079Z,83.23
2022-11-07T04:51:34.300Z,82.67
2022-11-07T04:54:06.760Z,83.52
2022-11-07T04:56:39.840Z,82.40
2022-11-07T04:59:12.108Z,82.57
2022-11-07T05:01:44.340Z,82.48
2022-11-07T05:04:16.556Z,82.16
2022-11-07T05:06:48.759Z,82.09
2022-11-07T05:09:21.399Z,82.55
2022-11-07T05:11:53.565Z,82.18
2022-11-07T05:14:25.809Z,82.32
2022-11-07T05:16:58.111Z,84.34
2022-11-07T05:19:31.348Z,83.34
2022-11-07T05:22:21.312Z,82.86
2022-11-07T05:24:53.556Z,82.92
2022-11-07T05:27:26.391Z,82.97
2022-11-07T05:29:58.516Z,83.68
2022-11-07T05:32:30.777Z,82.73
2022-11-07T05:35:02.961Z,82.84
2022-11-07T05:37:35.161Z,83.00
2022-11-07T05:40:10.374Z,83.47
2022-11-07T05:42:42.726Z,83.16
2022-11-07T05:45:15.149Z,83.37
2022-11-07T05:47:47.306Z,84.51
2022-11-07T05:50:19.763Z,86.14
2022-11-07T05:52:51.955Z,83.96
2022-11-07T05:55:25.234Z,83.56
2022-11-07T05:57:57.471Z,84.96
2022-11-07T06:00:29.660Z,84.50
2022-11-07T06:03:02.336Z,83.79
2022-11-07T06:05:34.657Z,84.19
2022-11-07T06:08:07.725Z,85.60
2022-11-07T06:10:40.981Z,84.55
2022-11-07T06:13:15.748Z,84.34
2022-11-07T06:15:47.355Z,84.20
2022-11-07T06:18:21.942Z,84.78
2022-11-07T06:20:54.542Z,84.65
2022-11-07T06:23:26.816Z,85.10
2022-11-07T06:25:58.956Z,84.72
2022-11-07T06:28:31.147Z,84.84
2022-11-07T06:31:04.622Z,85.94
2022-11-07T06:33:36.842Z,86.74
2022-11-07T06:36:12.187Z,86.83
2022-11-07T06:38:44.406Z,85.62
2022-11-07T06:41:17.545Z,85.48
2022-11-07T06:43:51.374Z,84.93
2022-11-07T06:46:23.495Z,85.88
2022-11-07T06:48:55.681Z,86.94
2022-11-07T06:51:28.241Z,85.63
2022-11-07T06:54:00.484Z,86.51
2022-11-07T06:56:32.623Z,86.09
2022-11-07T06:59:04.874Z,86.71
2022-11-07T07:01:37.267Z,87.06
2022-11-07T07:04:11.412Z,87.61
2022-11-07T07:06:43.783Z,86.75
2022-11-07T07:09:16.106Z,87.08
2022-11-07T07:11:48.454Z,87.75
2022-11-07T07:14:20.679Z,86.97
2022-11-07T07:16:52.868Z,86.41
2022-11-07T07:19:25.093Z,87.04
2022-11-07T07:21:57.638Z,88.18
2022-11-07T07:24:29.945Z,88.66
2022-11-07T07:27:02.154Z,88.87
2022-11-07T07:29:34.936Z,89.94
2022-11-07T07:32:07.363Z,88.40
2022-11-07T07:34:39.632Z,88.00
2022-11-07T07:37:12.291Z,88.05
2022-11-07T07:39:44.533Z,88.97
2022-11-07T07:42:17.108Z,88.49
2022-11-07T07:44:50.028Z,88.41
2022-11-07T07:47:22.239Z,88.45
2022-11-07T07:49:54.436Z,88.25
2022-11-07T07:52:26.678Z,89.59
2022-11-07T07:54:58.919Z,89.46
2022-11-07T07:57:31.347Z,88.36
2022-11-07T08:00:03.961Z,88.78
2022-11-07T08:02:44.724Z,89.15
2022-11-07T08:05:17.949Z,88.60
2022-11-07T08:07:52.183Z,88.58
2022-11-07T08:10:41.325Z,89.27
2022-11-07T08:13:14.179Z,90.54
2022-11-07T08:15:46.538Z,89.56
2022-11-07T08:18:19.950Z,89.13
2022-11-07T08:20:55.424Z,90.08
2022-11-07T08:23:27.820Z,89.71
2022-11-07T08:26:02.522Z,90.78
2022-11-07T08:28:36.663Z,90.31
2022-11-07T08:31:10.815Z,92.04
2022-11-07T08:33:43.110Z,90.58
2022-11-07T08:36:15.291Z,90.87
2022-11-07T08:38:47.461Z,91.18
2022-11-07T08:41:22.387Z,91.80
2022-11-07T08:43:54.895Z,92.28
2022-11-07T08:46:26.959Z,91.70
2022-11-07T08:48:59.152Z,91.39
2022-11-07T08:51:31.531Z,92.92
2022-11-07T08:54:03.941Z,91.98
2022-11-07T08:56:37.371Z,91.18
2022-11-07T08:59:10.924Z,91.61
2022-11-07T09:02:14.402Z,91.39
2022-11-07T09:04:35.703Z,90.89
2022-11-07T09:07:08.011Z,90.98
2022-11-07T09:09:40.207Z,91.84
2022-11-07T09:12:12.633Z,92.28
2022-11-07T09:14:44.848Z,91.96
2022-11-07T09:17:18.029Z,92.34
2022-11-07T09:19:51.897Z,93.18
2022-11-07T09:22:24.529Z,93.76
2022-11-07T09:24:56.731Z,93.09
2022-11-07T09:27:28.889Z,93.07
2022-11-07T09:30:01.110Z,92.56
2022-11-07T09:32:48.286Z,92.58
2022-11-07T09:35:20.701Z,93.79
2022-11-07T09:37:53.331Z,92.97
2022-11-07T09:40:40.736Z,93.59
2022-11-07T09:43:40.093Z,93.30
2022-11-07T09:46:24.340Z,93.82
2022-11-07T09:49:04.010Z,93.05
2022-11-07T09:51:41.042Z,92.99
2022-11-07T09:54:21.812Z,92.64
2022-11-07T09:56:55.898Z,92.80
2022-11-07T09:59:34.671Z,92.60
2022-11-07T10:02:17.409Z,92.13
2022-11-07T10:04:54.797Z,92.26
2022-11-07T10:07:38.138Z,92.45
2022-11-07T10:10:18.031Z,91.89
2022-11-07T10:13:08.990Z,91.98
2022-11-07T10:15:55.572Z,90.35
2022-11-07T10:18:37.421Z,90.49
2022-11-07T10:24:29.244Z,91.21
2022-11-07T10:27:02.459Z,90.34
2022-11-07T10:29:44.829Z,90.12
2022-11-07T10:32:23.875Z,87.64
2022-11-07T10:35:11.656Z,89.02
2022-11-07T10:37:43.824Z,88.01
2022-11-07T10:40:21.691Z,87.13
2022-11-07T10:42:54.765Z,87.57
2022-11-07T10:45:29.276Z,85.89
2022-11-07T10:48:03.789Z,86.92
2022-11-07T10:50:36.005Z,85.84
2022-11-07T10:53:19.516Z,85.68
2022-11-07T10:55:53.270Z,85.90
2022-11-07T10:58:29.458Z,86.08
2022-11-07T11:01:05.932Z,85.89
2022-11-07T11:03:45.811Z,84.91
2022-11-07T11:06:30.371Z,84.73
2022-11-07T11:09:17.351Z,84.35
2022-11-07T11:11:53.360Z,84.09
2022-11-07T11:14:25.603Z,84.97
2022-11-07T11:16:58.659Z,83.68
2022-11-07T11:19:36.186Z,84.65
2022-11-07T11:22:17.320Z,84.29
2022-11-07T11:24:59.045Z,83.71
2022-11-07T11:27:35.860Z,82.87
2022-11-07T11:30:13.941Z,82.41
2022-11-07T11:32:51.905Z,83.86
2022-11-07T11:35:41.303Z,82.59
2022-11-07T11:38:18.759Z,83.10
2022-11-07T11:41:03.296Z,81.16
2022-11-07T11:43:45.166Z,82.36
2022-11-07T11:46:27.239Z,82.04
2022-11-07T11:49:06.048Z,82.55
2022-11-07T11:51:45.706Z,81.26
2022-11-07T11:54:18.642Z,83.34
2022-11-07T11:56:57.113Z,79.96
2022-11-07T11:59:49.103Z,79.41
2022-11-07T12:02:47.852Z,79.93
2022-11-07T12:05:36.250Z,80.14
2022-11-07T12:08:22.889Z,81.66
2022-11-07T12:11:03.096Z,81.54
2022-11-07T12:13:43.814Z,81.17
2022-11-07T12:16:26.761Z,79.36
2022-11-07T12:19:07.199Z,78.27
2022-11-07T12:21:49.994Z,77.88
2022-11-07T12:24:34.521Z,77.55
2022-11-07T12:27:20.277Z,78.05
2022-11-07T12:30:09.999Z,79.54
2022-11-07T12:32:58.435Z,79.62
2022-11-07T12:35:40.212Z,79.77
2022-11-07T12:38:36.928Z,78.76
2022-11-07T12:41:20.389Z,80.43
2022-11-07T12:44:02.291Z,79.43
2022-11-07T12:46:46.765Z,78.53
2022-11-07T12:49:41.869Z,78.93
2022-11-07T12:52:27.298Z,78.82
2022-11-07T12:55:03.487Z,78.65
2022-11-07T12:57:39.522Z,79.08
2022-11-07T13:00:24.512Z,79.03
2022-11-07T13:03:26.556Z,79.97
2022-11-07T13:06:10.350Z,79.58
2022-11-07T13:08:52.016Z,80.45
2022-11-07T13:11:29.186Z,80.62
2022-11-07T13:14:19.638Z,80.43
2022-11-07T13:17:05.458Z,79.47
2022-11-07T13:19:40.533Z,79.46
2022-11-07T13:22:25.512Z,80.08
2022-11-07T13:25:10.636Z,80.45
2022-11-07T13:28:00.648Z,80.17
2022-11-07T13:30:38.114Z,79.73
2022-11-07T13:33:30.637Z,80.18
2022-11-07T13:36:15.603Z,80.44
2022-11-07T13:38:54.044Z,80.48
2022-11-07T13:41:26.825Z,80.47
2022-11-07T13:44:03.295Z,80.77
2022-11-07T13:46:40.479Z,80.90
2022-11-07T13:49:20.640Z,80.89
2022-11-07T13:51:54.595Z,81.16
2022-11-07T13:54:35.873Z,81.51
2022-11-07T13:57:12.886Z,81.56
2022-11-07T13:59:51.347Z,81.67
2022-11-07T14:02:25.597Z,82.14
2022-11-07T14:05:20.054Z,81.63
2022-11-07T14:07:58.031Z,81.88
2022-11-07T14:10:33.943Z,81.71
2022-11-07T14:13:08.930Z,81.71
2022-11-07T14:15:48.291Z,82.01
2022-11-07T14:18:21.841Z,82.11
2022-11-07T14:20:56.697Z,82.32
2022-11-07T14:23:28.175Z,82.53
2022-11-07T14:26:02.573Z,82.99
2022-11-07T14:28:39.425Z,83.17
2022-11-07T14:31:26.182Z,82.51
2022-11-07T14:34:00.428Z,82.81
2022-11-07T14:36:33.080Z,82.84
2022-11-07T14:39:12.891Z,83.02
2022-11-07T14:41:48.322Z,83.06
2022-11-07T14:44:28.402Z,83.57
2022-11-07T14:47:13.089Z,83.80
2022-11-07T14:49:48.198Z,83.81
2022-11-07T14:52:26.051Z,83.88
2022-11-07T14:55:04.269Z,83.61
2022-11-07T14:57:38.911Z,83.60
2022-11-07T15:00:17.723Z,83.76
2022-11-07T15:02:54.236Z,83.72
2022-11-07T15:05:29.566Z,83.77
2022-11-07T15:08:02.695Z,83.77
2022-11-07T15:10:39.791Z,84.21
2022-11-07T15:13:26.431Z,84.12
2022-11-07T15:16:05.513Z,84.35
2022-11-07T15:18:43.110Z,84.67
2022-11-07T15:21:29.763Z,83.84
2022-11-07T15:24:23.279Z,83.91
2022-11-07T15:27:03.181Z,84.25
2022-11-07T15:29:37.528Z,84.38
2022-11-07T15:32:16.821Z,84.43
2022-11-07T15:35:07.824Z,84.86
2022-11-07T15:37:54.428Z,84.72
2022-11-07T15:40:27.645Z,84.44
2022-11-07T15:43:00.200Z,84.77
2022-11-07T15:45:33.210Z,84.26
2022-11-07T15:48:06.155Z,84.26
2022-11-07T15:50:42.409Z,84.28
2022-11-07T15:53:21.516Z,84.14
2022-11-07T15:55:57.376Z,84.89
2022-11-07T15:58:32.483Z,85.03
2022-11-07T16:01:04.707Z,85.36
2022-11-07T16:03:37.110Z,85.20
2022-11-07T16:06:27.532Z,85.23
2022-11-07T16:09:00.768Z,85.53
2022-11-07T16:11:32.959Z,85.27
2022-11-07T16:14:33.853Z,84.71
2022-11-07T16:16:57.424Z,84.77
2022-11-07T16:19:32.272Z,85.77
2022-11-07T16:22:04.492Z,85.56
2022-11-07T16:24:36.662Z,85.46
2022-11-07T16:27:09.269Z,85.98
2022-11-07T16:29:44.365Z,86.56
2022-11-07T16:32:18.658Z,87.02
2022-11-07T16:34:51.229Z,86.86
2022-11-07T16:37:23.413Z,86.15
2022-11-07T16:39:55.614Z,86.26
2022-11-07T16:42:28.342Z,85.76
2022-11-07T16:45:00.612Z,86.07
2022-11-07T16:47:37.592Z,85.79
2022-11-07T16:50:11.459Z,85.67
2022-11-07T16:52:43.774Z,86.10
2022-11-07T16:55:19.859Z,85.97
2022-11-07T16:57:52.118Z,86.67
2022-11-07T17:00:25.808Z,86.46
2022-11-07T17:02:58.212Z,85.85
2022-11-07T17:05:30.649Z,85.99
2022-11-07T17:08:03.746Z,85.62
2022-11-07T17:10:35.817Z,85.63
2022-11-07T17:13:08.036Z,85.38
2022-11-07T17:15:40.736Z,85.63
2022-11-07T17:18:20.459Z,85.52
2022-11-07T17:20:54.492Z,85.86
2022-11-07T17:23:30.172Z,86.29
2022-11-07T17:26:02.800Z,86.15
2022-11-07T17:28:35.020Z,86.19
2022-11-07T17:31:07.396Z,86.15
2022-11-07T17:33:39.558Z,86.05
2022-11-07T17:36:23.937Z,85.85
2022-11-07T17:38:56.260Z,85.46
2022-11-07T17:41:30.071Z,85.91
2022-11-07T17:44:03.850Z,86.29
2022-11-07T17:46:37.653Z,86.01
2022-11-07T17:49:12.383Z,86.44
2022-11-07T17:51:44.989Z,86.82
2022-11-07T17:54:17.794Z,86.03
2022-11-07T17:56:50.528Z,86.90
2022-11-07T17:59:23.593Z,86.70
2022-11-07T18:01:55.931Z,86.46
2022-11-07T18:04:28.315Z,86.60
2022-11-07T18:07:00.556Z,86.65
2022-11-07T18:09:32.875Z,86.14
2022-11-07T18:12:05.508Z,86.49
2022-11-07T18:14:37.699Z,87.08
2022-11-07T18:17:09.996Z,86.70
2022-11-07T18:19:42.624Z,86.95
2022-11-07T18:22:14.740Z,87.09
2022-11-07T18:24:47.681Z,87.18
2022-11-07T18:27:20.116Z,87.39
2022-11-07T18:29:52.353Z,86.80
2022-11-07T18:32:24.617Z,86.89
2022-11-07T18:34:56.914Z,87.03
2022-11-07T18:37:29.106Z,87.01
2022-11-07T18:40:01.328Z,87.49
2022-11-07T18:42:33.673Z,87.64
2022-11-07T18:45:07.121Z,87.78
2022-11-07T18:47:39.337Z,87.99
2022-11-07T18:50:12.585Z,87.82
2022-11-07T18:52:44.754Z,88.25
2022-11-07T18:55:17.267Z,88.47
2022-11-07T18:57:49.475Z,88.35
2022-11-07T19:00:22.015Z,88.21
2022-11-07T19:02:54.961Z,88.54
2022-11-07T19:05:27.565Z,88.48
2022-11-07T19:07:59.763Z,89.14
2022-11-07T19:10:32.056Z,89.59
2022-11-07T19:13:08.106Z,89.37
2022-11-07T19:15:42.126Z,89.45
2022-11-07T19:18:14.690Z,89.37
2022-11-07T19:20:47.643Z,89.56
2022-11-07T19:23:19.904Z,89.40
2022-11-07T19:25:52.515Z,89.57
2022-11-07T19:28:25.017Z,89.80
2022-11-07T19:30:57.235Z,89.61
2022-11-07T19:33:29.456Z,89.78
2022-11-07T19:36:03.210Z,89.34
2022-11-07T19:38:36.176Z,90.16
2022-11-07T19:41:10.712Z,90.44
2022-11-07T19:43:43.351Z,90.28
2022-11-07T19:46:20.304Z,89.51
2022-11-07T19:48:53.215Z,89.21
2022-11-07T19:51:25.424Z,88.92
2022-11-07T19:53:59.244Z,88.68
2022-11-07T19:56:33.023Z,88.69
2022-11-07T19:59:05.561Z,88.88
2022-11-07T20:01:39.546Z,89.09
2022-11-07T20:04:12.060Z,89.09
2022-11-07T20:06:44.361Z,89.13
2022-11-07T20:09:16.962Z,88.82
2022-11-07T20:11:49.434Z,88.59
2022-11-07T20:14:21.681Z,88.13
2022-11-07T20:16:53.980Z,88.63
2022-11-07T20:19:26.536Z,88.73
2022-11-07T20:21:58.957Z,88.82
2022-11-07T20:24:31.431Z,88.67
2022-11-07T20:27:03.687Z,88.86
2022-11-07T20:29:35.919Z,89.10
2022-11-07T20:32:08.527Z,88.94
2022-11-07T20:34:41.027Z,88.32
2022-11-07T20:37:13.711Z,88.45
2022-11-07T20:39:47.049Z,88.40
2022-11-07T20:42:19.832Z,88.67
2022-11-07T20:44:53.269Z,88.51
2022-11-07T20:47:25.707Z,88.79
2022-11-07T20:49:57.899Z,89.19
2022-11-07T20:52:30.201Z,89.61
2022-11-07T20:55:02.417Z,89.23
2022-11-07T20:57:34.739Z,89.35
2022-11-07T21:00:10.438Z,89.17
2022-11-07T21:02:42.734Z,88.68
2022-11-07T21:05:20.275Z,88.85
2022-11-07T21:07:52.558Z,88.63
2022-11-07T21:10:24.877Z,88.75
2022-11-07T21:12:57.117Z,89.22
2022-11-07T21:15:29.262Z,89.31
2022-11-07T21:18:03.476Z,89.92
2022-11-07T21:20:35.923Z,90.12
2022-11-07T21:23:09.726Z,89.91
2022-11-07T21:25:44.298Z,89.38
2022-11-07T21:28:18.350Z,89.06
2022-11-07T21:31:01.111Z,88.86
2022-11-07T21:33:34.279Z,89.39
2022-11-07T21:36:11.591Z,88.93
2022-11-07T21:38:45.057Z,89.31
2022-11-07T21:41:18.513Z,89.66
2022-11-07T21:43:51.029Z,89.88
2022-11-07T21:46:24.650Z,90.23
2022-11-07T21:48:57.654Z,90.20
2022-11-07T21:51:32.017Z,89.63
2022-11-07T21:54:06.065Z,89.69
2022-11-07T21:56:40.585Z,90.07
2022-11-07T21:59:13.682Z,89.93
2022-11-07T22:01:48.821Z,89.70
2022-11-07T22:04:21.285Z,89.69
2022-11-07T22:06:53.844Z,90.39
2022-11-07T22:09:26.185Z,90.75
2022-11-07T22:11:58.430Z,90.71
2022-11-07T22:14:30.630Z,90.68
2022-11-07T22:17:02.994Z,90.21
2022-11-07T22:19:35.167Z,90.14
2022-11-07T22:22:07.384Z,90.30
2022-11-07T22:24:39.685Z,90.26
2022-11-07T22:27:11.875Z,90.04
2022-11-07T22:29:44.110Z,90.70
2022-11-07T22:32:16.288Z,90.63
2022-11-07T22:34:48.518Z,91.11
2022-11-07T22:37:20.869Z,91.04
2022-11-07T22:39:53.208Z,91.20
2022-11-07T22:42:25.552Z,90.87
2022-11-07T22:44:57.776Z,90.85
2022-11-07T22:47:29.938Z,90.71
2022-11-07T22:50:02.379Z,91.08
2022-11-07T22:52:34.621Z,90.62
2022-11-07T22:55:09.284Z,90.58
2022-11-07T22:57:43.459Z,90.60
2022-11-07T23:00:22.204Z,90.43
2022-11-07T23:02:54.739Z,90.83
2022-11-07T23:05:27.428Z,90.91
2022-11-07T23:08:00.192Z,90.59
2022-11-07T23:10:32.691Z,90.17
2022-11-07T23:13:05.112Z,90.20
2022-11-07T23:15:37.383Z,90.15
2022-11-07T23:18:09.651Z,89.98
2022-11-07T23:21:07.804Z,90.18
2022-11-07T23:23:40.539Z,90.28
2022-11-07T23:26:15.422Z,90.33
2022-11-07T23:28:46.652Z,90.56
2022-11-07T23:31:20.039Z,90.52
2022-11-07T23:33:52.256Z,90.85
2022-11-07T23:36:24.559Z,90.47
2022-11-07T23:38:56.875Z,90.18
2022-11-07T23:41:29.164Z,90.11
2022-11-07T23:44:01.445Z,90.12
2022-11-07T23:46:51.625Z,90.03
2022-11-07T23:49:41.900Z,89.98
2022-11-07T23:52:14.246Z,90.19
2022-11-07T23:55:04.210Z,90.46
2022-11-07T23:57:58.263Z,90.69
